Biscayne Natl Park, Florida
Current Conditions -  °F | °C
As of 2:58 AM on Tuesday 21 Oct 2014 (Local Time) from KHST Reporting Station
Scattered Clouds Scattered Clouds  
Wind Chill: 75°   Ceiling: Unl
Heat Index: 75°   Visibility: 10mi
Dew Point: 73°   Wind: 6mph
Humidity: 94%   Direction: 180°S
Pressure: 29.92"   Gusts: NA
Location:  25.42°N, 80.2°W
Report Text: KHST 210658Z AUTO 18005KT 10SM FEW020 SCT030 SCT035 24/23 A2992 RMK AO2 LTG DSNT S SLP135 T02380227
Loading
Personal Weather Stations






























Interactive Weather Map
Tropical Storm Tracking
New forecast layout! Learn more

10-Day Weather Forecast

Advertisements
Track Severe Weather on mobile